BLACKWATER MD US current weather conditions

sailwx.info

Wind from 311 at 5 knots gusting 8

Air temperature 21.1° C
Dewpoint 13.8° C

Last reported at 2020-Oct-01 14:26 UTC.
Time now 2020-Oct-01 15:41 UTC

Location: N 38°27' W 076°06'.
View on Google Maps.

See reports from other nearby stations

  
Tides and Currents Weather Stations Pressure Air Temp Water Temp Dewpoint Dewpoint Depression Visibility Wind Speed Wind Dir Waves Ship Positions
date/time (UTC)wind fromknots sea level pressurealtimeterstation pressurevisibilityair tempwater tempwave heightnotes
2020-Oct-01 14:26 311 5 gusting 8 21.1
2020-Oct-01 13:26 297 5 gusting 8 19.4
2020-Oct-01 12:26 281 2 gusting 5 17.8
2020-Oct-01 11:26 305 2 gusting 8 14.4
2020-Oct-01 10:26 233 6 gusting 11 16.1
2020-Oct-01 09:26 222 6 gusting 11 16.7
2020-Oct-01 08:26 213 7 gusting 11 17.2
2020-Oct-01 07:26 210 7 gusting 12 17.8
2020-Oct-01 06:26 201 6 gusting 13 17.8
2020-Oct-01 05:26 213 6 gusting 13 17.8
2020-Oct-01 04:26 221 9 gusting 13 17.8
2020-Oct-01 03:26 206 7 gusting 13 18.3
2020-Oct-01 02:26 209 7 gusting 13 18.3
2020-Oct-01 01:26 204 6 gusting 11 18.3
2020-Oct-01 00:26 212 5 gusting 8 17.8
2020-Sep-30 23:26 228 4 gusting 12 17.8
2020-Sep-30 22:26 237 6 gusting 14 19.4
2020-Sep-30 21:26 237 7 gusting 15 21.1
2020-Sep-30 20:26 237 10 gusting 15 21.1
2020-Sep-30 19:26 233 8 gusting 15 21.1
2020-Sep-30 18:26 269 9 gusting 17 21.1
2020-Sep-30 17:26 250 6 gusting 14 21.7
2020-Sep-30 16:26 285 7 gusting 14 21.1
2020-Sep-30 15:26 260 7 gusting 18 20.0
2020-Sep-30 14:26 262 7 gusting 14 18.9
2020-Sep-30 13:26 257 7 gusting 13 17.8
2020-Sep-30 12:26 252 4 gusting 12 15.0
2020-Sep-30 11:26 259 5 gusting 10 13.9
2020-Sep-30 10:26 275 5 gusting 12 13.9
2020-Sep-30 09:26 282 7 gusting 18 13.9
2020-Sep-30 08:26 273 9 gusting 19 15.0
2020-Sep-30 07:26 255 1 gusting 6 15.0
2020-Sep-30 06:26 018 4 gusting 14 15.0
2020-Sep-30 05:26 352 9 gusting 22 15.0
2020-Sep-30 04:26 326 13 gusting 26 15.0
2020-Sep-30 03:26 321 13 gusting 22 16.7
2020-Sep-30 02:26 185 10 gusting 17 22.8
2020-Sep-30 01:26 168 9 gusting 18 22.2
2020-Sep-30 00:26 156 11 gusting 17 22.8
2020-Sep-29 23:26 162 6 gusting 13 22.8
2020-Sep-29 22:26 147 5 gusting 12 22.8
2020-Sep-29 21:26 172 6 gusting 12 23.9
2020-Sep-29 20:26 187 8 gusting 14 23.9
2020-Sep-29 19:26 166 6 gusting 9 23.3
2020-Sep-29 18:26 168 5 gusting 7 22.8
2020-Sep-29 17:26 204 3 gusting 13 22.8
2020-Sep-29 16:26 158 6 gusting 12 23.3
2020-Sep-29 15:26 176 7 gusting 12 23.9